sensor_id;sensor_type;location;lat;lon;timestamp;pressure;altitude;pressure_sealevel;temperature;humidity
61436;BME280;47304;47.456;19.160;2023-05-15T00:00:11;99553.88;;;12.31;89.49
61436;BME280;47304;47.456;19.160;2023-05-15T00:02:38;99549.52;;;12.30;89.42
61436;BME280;47304;47.456;19.160;2023-05-15T00:05:06;99547.05;;;12.30;89.57
61436;BME280;47304;47.456;19.160;2023-05-15T00:07:34;99548.79;;;12.31;89.52
61436;BME280;47304;47.456;19.160;2023-05-15T00:10:01;99547.56;;;12.31;89.47
61436;BME280;47304;47.456;19.160;2023-05-15T00:12:27;99545.63;;;12.32;89.62
61436;BME280;47304;47.456;19.160;2023-05-15T00:14:54;99548.41;;;12.32;89.60
61436;BME280;47304;47.456;19.160;2023-05-15T00:17:20;99550.70;;;12.32;89.63
61436;BME280;47304;47.456;19.160;2023-05-15T00:19:47;99554.73;;;12.32;89.51
61436;BME280;47304;47.456;19.160;2023-05-15T00:22:13;99559.29;;;12.33;89.58
61436;BME280;47304;47.456;19.160;2023-05-15T00:24:40;99554.04;;;12.32;89.52
61436;BME280;47304;47.456;19.160;2023-05-15T00:27:07;99559.34;;;12.31;89.33
61436;BME280;47304;47.456;19.160;2023-05-15T00:29:33;99567.95;;;12.30;89.42
61436;BME280;47304;47.456;19.160;2023-05-15T00:32:00;99573.75;;;12.30;89.63
61436;BME280;47304;47.456;19.160;2023-05-15T00:34:26;99575.52;;;12.30;89.48
61436;BME280;47304;47.456;19.160;2023-05-15T00:36:53;99578.46;;;12.31;89.59
61436;BME280;47304;47.456;19.160;2023-05-15T00:39:19;99571.24;;;12.32;89.64
61436;BME280;47304;47.456;19.160;2023-05-15T00:41:46;99565.79;;;12.33;89.54
61436;BME280;47304;47.456;19.160;2023-05-15T00:44:15;99573.52;;;12.33;89.46
61436;BME280;47304;47.456;19.160;2023-05-15T00:46:44;99565.07;;;12.33;89.51
61436;BME280;47304;47.456;19.160;2023-05-15T00:49:11;99548.23;;;12.32;89.38
61436;BME280;47304;47.456;19.160;2023-05-15T00:51:42;99546.15;;;12.31;89.55
61436;BME280;47304;47.456;19.160;2023-05-15T00:54:09;99548.28;;;12.31;89.48
61436;BME280;47304;47.456;19.160;2023-05-15T00:56:37;99550.02;;;12.31;89.47
61436;BME280;47304;47.456;19.160;2023-05-15T00:59:04;99550.02;;;12.31;89.55
61436;BME280;47304;47.456;19.160;2023-05-15T01:01:32;99549.68;;;12.30;89.40
61436;BME280;47304;47.456;19.160;2023-05-15T01:04:02;99548.46;;;12.30;89.51
61436;BME280;47304;47.456;19.160;2023-05-15T01:06:30;99535.30;;;12.29;89.49
61436;BME280;47304;47.456;19.160;2023-05-15T01:08:58;99532.67;;;12.29;89.39
61436;BME280;47304;47.456;19.160;2023-05-15T01:11:27;99529.69;;;12.28;89.49
61436;BME280;47304;47.456;19.160;2023-05-15T01:13:54;99526.02;;;12.29;89.58
61436;BME280;47304;47.456;19.160;2023-05-15T01:16:20;99512.86;;;12.28;89.47
61436;BME280;47304;47.456;19.160;2023-05-15T01:18:47;99514.63;;;12.28;89.63
61436;BME280;47304;47.456;19.160;2023-05-15T01:24:56;99521.45;;;12.28;89.64
61436;BME280;47304;47.456;19.160;2023-05-15T01:27:24;99525.88;;;12.27;89.49
61436;BME280;47304;47.456;19.160;2023-05-15T01:29:58;99523.60;;;12.27;89.63
61436;BME280;47304;47.456;19.160;2023-05-15T01:32:33;99522.02;;;12.27;89.60
61436;BME280;47304;47.456;19.160;2023-05-15T01:35:11;99522.20;;;12.26;89.60
61436;BME280;47304;47.456;19.160;2023-05-15T01:37:44;99523.26;;;12.26;89.71
61436;BME280;47304;47.456;19.160;2023-05-15T01:40:14;99522.39;;;12.25;89.52
61436;BME280;47304;47.456;19.160;2023-05-15T01:42:50;99512.96;;;12.23;89.64
61436;BME280;47304;47.456;19.160;2023-05-15T01:45:20;99517.71;;;12.22;89.52
61436;BME280;47304;47.456;19.160;2023-05-15T01:47:49;99511.95;;;12.22;89.53
61436;BME280;47304;47.456;19.160;2023-05-15T01:50:19;99507.91;;;12.22;89.52
61436;BME280;47304;47.456;19.160;2023-05-15T01:52:55;99496.51;;;12.21;89.60
61436;BME280;47304;47.456;19.160;2023-05-15T01:55:24;99491.25;;;12.20;89.50
61436;BME280;47304;47.456;19.160;2023-05-15T01:57:51;99482.86;;;12.19;89.57
61436;BME280;47304;47.456;19.160;2023-05-15T02:00:18;99479.77;;;12.15;89.71
61436;BME280;47304;47.456;19.160;2023-05-15T02:02:46;99490.09;;;12.17;89.68
61436;BME280;47304;47.456;19.160;2023-05-15T02:05:15;99485.92;;;12.15;89.71
61436;BME280;47304;47.456;19.160;2023-05-15T02:07:42;99486.61;;;12.15;89.50
61436;BME280;47304;47.456;19.160;2023-05-15T02:10:11;99479.27;;;12.14;89.68
61436;BME280;47304;47.456;19.160;2023-05-15T02:12:41;99478.95;;;12.13;89.79
61436;BME280;47304;47.456;19.160;2023-05-15T02:15:09;99480.90;;;12.12;89.64
61436;BME280;47304;47.456;19.160;2023-05-15T02:17:36;99480.04;;;12.11;89.69
61436;BME280;47304;47.456;19.160;2023-05-15T02:20:03;99484.48;;;12.08;89.72
61436;BME280;47304;47.456;19.160;2023-05-15T02:22:30;99499.79;;;12.07;89.74
61436;BME280;47304;47.456;19.160;2023-05-15T02:24:57;99520.91;;;12.04;89.80
61436;BME280;47304;47.456;19.160;2023-05-15T02:27:26;99530.23;;;12.03;90.05
61436;BME280;47304;47.456;19.160;2023-05-15T02:30:13;99527.79;;;12.02;90.04
61436;BME280;47304;47.456;19.160;2023-05-15T02:35:41;99515.77;;;12.05;90.24
61436;BME280;47304;47.456;19.160;2023-05-15T02:38:19;99514.18;;;12.06;90.13
61436;BME280;47304;47.456;19.160;2023-05-15T02:40:46;99529.84;;;12.05;90.14
61436;BME280;47304;47.456;19.160;2023-05-15T02:43:14;99535.64;;;12.04;90.11
61436;BME280;47304;47.456;19.160;2023-05-15T02:45:44;99536.67;;;12.05;90.15
61436;BME280;47304;47.456;19.160;2023-05-15T02:48:12;99537.36;;;12.06;90.23
61436;BME280;47304;47.456;19.160;2023-05-15T02:50:39;99535.42;;;12.06;90.21
61436;BME280;47304;47.456;19.160;2023-05-15T02:53:06;99533.48;;;12.08;90.31
61436;BME280;47304;47.456;19.160;2023-05-15T02:55:33;99533.96;;;12.09;90.26
61436;BME280;47304;47.456;19.160;2023-05-15T02:57:59;99535.72;;;12.09;90.22
61436;BME280;47304;47.456;19.160;2023-05-15T03:00:27;99529.70;;;12.11;90.44
61436;BME280;47304;47.456;19.160;2023-05-15T03:02:54;99519.14;;;12.13;90.15
61436;BME280;47304;47.456;19.160;2023-05-15T03:05:20;99515.27;;;12.13;90.45
61436;BME280;47304;47.456;19.160;2023-05-15T03:07:47;99516.81;;;12.15;90.50
61436;BME280;47304;47.456;19.160;2023-05-15T03:10:13;99513.11;;;12.16;90.56
61436;BME280;47304;47.456;19.160;2023-05-15T03:12:40;99514.66;;;12.17;90.22
61436;BME280;47304;47.456;19.160;2023-05-15T03:15:07;99512.20;;;12.17;90.22
61436;BME280;47304;47.456;19.160;2023-05-15T03:17:33;99505.34;;;12.19;90.14
61436;BME280;47304;47.456;19.160;2023-05-15T03:20:00;99494.26;;;12.20;90.14
61436;BME280;47304;47.456;19.160;2023-05-15T03:22:27;99490.55;;;12.19;90.05
61436;BME280;47304;47.456;19.160;2023-05-15T03:24:53;99490.02;;;12.20;90.21
61436;BME280;47304;47.456;19.160;2023-05-15T03:27:20;99485.97;;;12.20;90.26
61436;BME280;47304;47.456;19.160;2023-05-15T03:29:46;99486.30;;;12.22;90.38
61436;BME280;47304;47.456;19.160;2023-05-15T03:32:13;99486.08;;;12.24;90.28
61436;BME280;47304;47.456;19.160;2023-05-15T03:34:39;99479.04;;;12.25;90.11
61436;BME280;47304;47.456;19.160;2023-05-15T03:37:06;99466.93;;;12.24;90.11
61436;BME280;47304;47.456;19.160;2023-05-15T03:39:33;99459.73;;;12.25;90.20
61436;BME280;47304;47.456;19.160;2023-05-15T03:41:59;99453.71;;;12.27;90.33
61436;BME280;47304;47.456;19.160;2023-05-15T03:44:26;99450.02;;;12.27;90.45
61436;BME280;47304;47.456;19.160;2023-05-15T03:46:52;99443.06;;;12.31;90.58
61436;BME280;47304;47.456;19.160;2023-05-15T03:49:19;99434.77;;;12.33;90.24
61436;BME280;47304;47.456;19.160;2023-05-15T03:51:45;99437.36;;;12.35;90.19
61436;BME280;47304;47.456;19.160;2023-05-15T03:54:12;99444.73;;;12.36;90.11
61436;BME280;47304;47.456;19.160;2023-05-15T03:56:39;99444.39;;;12.35;89.88
61436;BME280;47304;47.456;19.160;2023-05-15T03:59:05;99428.25;;;12.35;90.10
61436;BME280;47304;47.456;19.160;2023-05-15T04:01:32;99428.36;;;12.38;90.22
61436;BME280;47304;47.456;19.160;2023-05-15T04:04:06;99438.02;;;12.37;90.07
61436;BME280;47304;47.456;19.160;2023-05-15T04:06:33;99441.56;;;12.36;89.97
61436;BME280;47304;47.456;19.160;2023-05-15T04:08:59;99437.55;;;12.35;90.06
61436;BME280;47304;47.456;19.160;2023-05-15T04:11:26;99432.63;;;12.35;90.01
61436;BME280;47304;47.456;19.160;2023-05-15T04:13:52;99436.10;;;12.37;90.39
61436;BME280;47304;47.456;19.160;2023-05-15T04:16:19;99437.44;;;12.40;90.32
61436;BME280;47304;47.456;19.160;2023-05-15T04:18:45;99434.96;;;12.41;90.26
61436;BME280;47304;47.456;19.160;2023-05-15T04:21:12;99435.61;;;12.43;90.07
61436;BME280;47304;47.456;19.160;2023-05-15T04:23:39;99430.48;;;12.44;90.14
61436;BME280;47304;47.456;19.160;2023-05-15T04:26:05;99424.27;;;12.47;90.06
61436;BME280;47304;47.456;19.160;2023-05-15T04:28:32;99421.43;;;12.48;90.21
61436;BME280;47304;47.456;19.160;2023-05-15T04:30:59;99423.70;;;12.50;90.16
61436;BME280;47304;47.456;19.160;2023-05-15T04:33:25;99425.96;;;12.50;90.34
61436;BME280;47304;47.456;19.160;2023-05-15T04:35:52;99429.08;;;12.52;90.24
61436;BME280;47304;47.456;19.160;2023-05-15T04:38:18;99434.10;;;12.55;90.16
61436;BME280;47304;47.456;19.160;2023-05-15T04:40:45;99433.17;;;12.57;90.21
61436;BME280;47304;47.456;19.160;2023-05-15T04:43:11;99447.89;;;12.58;89.99
61436;BME280;47304;47.456;19.160;2023-05-15T04:45:38;99448.44;;;12.58;89.93
61436;BME280;47304;47.456;19.160;2023-05-15T04:48:05;99448.96;;;12.58;89.86
61436;BME280;47304;47.456;19.160;2023-05-15T04:50:31;99450.88;;;12.59;89.96
61436;BME280;47304;47.456;19.160;2023-05-15T04:52:58;99452.77;;;12.61;89.93
61436;BME280;47304;47.456;19.160;2023-05-15T04:55:24;99445.00;;;12.62;90.10
61436;BME280;47304;47.456;19.160;2023-05-15T04:57:51;99450.04;;;12.65;90.13
61436;BME280;47304;47.456;19.160;2023-05-15T05:00:18;99462.77;;;12.69;90.09
61436;BME280;47304;47.456;19.160;2023-05-15T05:02:45;99472.70;;;12.72;90.03
61436;BME280;47304;47.456;19.160;2023-05-15T05:05:11;99476.19;;;12.74;89.84
61436;BME280;47304;47.456;19.160;2023-05-15T05:07:38;99487.06;;;12.75;89.92
61436;BME280;47304;47.456;19.160;2023-05-15T05:10:05;99498.16;;;12.74;89.77
61436;BME280;47304;47.456;19.160;2023-05-15T05:12:31;99499.09;;;12.72;89.70
61436;BME280;47304;47.456;19.160;2023-05-15T05:14:58;99496.15;;;12.70;89.84
61436;BME280;47304;47.456;19.160;2023-05-15T05:17:24;99498.63;;;12.69;89.75
61436;BME280;47304;47.456;19.160;2023-05-15T05:19:51;99509.54;;;12.68;89.85
61436;BME280;47304;47.456;19.160;2023-05-15T05:22:17;99509.88;;;12.68;89.94
61436;BME280;47304;47.456;19.160;2023-05-15T05:24:44;99515.50;;;12.69;90.00
61436;BME280;47304;47.456;19.160;2023-05-15T05:27:10;99518.86;;;12.67;90.13
61436;BME280;47304;47.456;19.160;2023-05-15T05:29:37;99517.11;;;12.67;90.22
61436;BME280;47304;47.456;19.160;2023-05-15T05:32:04;99505.84;;;12.68;90.35
61436;BME280;47304;47.456;19.160;2023-05-15T05:34:30;99491.41;;;12.69;90.55
61436;BME280;47304;47.456;19.160;2023-05-15T05:36:57;99493.05;;;12.67;90.52
61436;BME280;47304;47.456;19.160;2023-05-15T05:39:23;99500.12;;;12.65;90.61
61436;BME280;47304;47.456;19.160;2023-05-15T05:41:50;99513.48;;;12.64;90.71
61436;BME280;47304;47.456;19.160;2023-05-15T05:44:16;99516.46;;;12.64;90.78
61436;BME280;47304;47.456;19.160;2023-05-15T05:46:43;99515.00;;;12.67;91.03
61436;BME280;47304;47.456;19.160;2023-05-15T05:49:10;99512.16;;;12.68;90.79
61436;BME280;47304;47.456;19.160;2023-05-15T05:51:36;99518.50;;;12.75;90.85
61436;BME280;47304;47.456;19.160;2023-05-15T05:54:03;99516.29;;;12.80;90.83
61436;BME280;47304;47.456;19.160;2023-05-15T05:56:30;99509.13;;;12.86;90.99
61436;BME280;47304;47.456;19.160;2023-05-15T05:58:56;99515.17;;;12.90;90.84
61436;BME280;47304;47.456;19.160;2023-05-15T06:01:23;99512.46;;;12.93;90.50
61436;BME280;47304;47.456;19.160;2023-05-15T06:03:49;99519.38;;;12.99;90.92
61436;BME280;47304;47.456;19.160;2023-05-15T06:06:16;99523.02;;;13.00;90.61
61436;BME280;47304;47.456;19.160;2023-05-15T06:08:42;99517.13;;;12.96;90.24
61436;BME280;47304;47.456;19.160;2023-05-15T06:11:09;99513.80;;;12.95;90.16
61436;BME280;47304;47.456;19.160;2023-05-15T06:13:35;99522.02;;;12.98;90.18
61436;BME280;47304;47.456;19.160;2023-05-15T06:16:02;99524.00;;;13.03;90.20
61436;BME280;47304;47.456;19.160;2023-05-15T06:18:29;99527.53;;;13.10;90.16
61436;BME280;47304;47.456;19.160;2023-05-15T06:20:55;99532.45;;;13.17;90.05
61436;BME280;47304;47.456;19.160;2023-05-15T06:23:22;99545.52;;;13.23;90.06
61436;BME280;47304;47.456;19.160;2023-05-15T06:25:49;99554.05;;;13.27;89.81
61436;BME280;47304;47.456;19.160;2023-05-15T06:28:16;99553.45;;;13.29;89.74
61436;BME280;47304;47.456;19.160;2023-05-15T06:30:42;99551.08;;;13.33;89.42
61436;BME280;47304;47.456;19.160;2023-05-15T06:33:09;99554.25;;;13.40;89.54
61436;BME280;47304;47.456;19.160;2023-05-15T06:35:36;99545.11;;;13.48;89.32
61436;BME280;47304;47.456;19.160;2023-05-15T06:38:02;99543.42;;;13.52;88.64
61436;BME280;47304;47.456;19.160;2023-05-15T06:40:29;99537.84;;;13.57;88.33
61436;BME280;47304;47.456;19.160;2023-05-15T06:42:55;99532.52;;;13.65;88.33
61436;BME280;47304;47.456;19.160;2023-05-15T06:45:22;99519.44;;;13.73;88.53
61436;BME280;47304;47.456;19.160;2023-05-15T06:47:49;99512.82;;;13.84;88.61
61436;BME280;47304;47.456;19.160;2023-05-15T06:50:15;99510.06;;;13.95;88.30
61436;BME280;47304;47.456;19.160;2023-05-15T06:52:42;99509.97;;;14.05;88.25
61436;BME280;47304;47.456;19.160;2023-05-15T06:55:09;99511.55;;;14.11;87.68
61436;BME280;47304;47.456;19.160;2023-05-15T06:57:35;99514.25;;;14.15;87.24
61436;BME280;47304;47.456;19.160;2023-05-15T07:00:02;99519.84;;;14.23;87.37
61436;BME280;47304;47.456;19.160;2023-05-15T07:02:28;99511.06;;;14.34;87.49
61436;BME280;47304;47.456;19.160;2023-05-15T07:04:55;99508.23;;;14.52;87.51
61436;BME280;47304;47.456;19.160;2023-05-15T07:07:21;99510.07;;;14.67;86.96
61436;BME280;47304;47.456;19.160;2023-05-15T07:09:48;99515.92;;;14.84;86.14
61436;BME280;47304;47.456;19.160;2023-05-15T07:12:14;99519.08;;;14.95;85.83
61436;BME280;47304;47.456;19.160;2023-05-15T07:14:41;99521.79;;;14.99;85.19
61436;BME280;47304;47.456;19.160;2023-05-15T07:17:08;99526.70;;;15.00;84.73
61436;BME280;47304;47.456;19.160;2023-05-15T07:19:34;99530.89;;;14.96;83.42
61436;BME280;47304;47.456;19.160;2023-05-15T07:22:01;99532.67;;;14.95;83.58
61436;BME280;47304;47.456;19.160;2023-05-15T07:24:29;99533.59;;;15.05;83.59
61436;BME280;47304;47.456;19.160;2023-05-15T07:26:55;99538.09;;;15.13;83.04
61436;BME280;47304;47.456;19.160;2023-05-15T07:29:24;99540.35;;;15.14;82.68
61436;BME280;47304;47.456;19.160;2023-05-15T07:31:51;99545.58;;;15.22;83.07
61436;BME280;47304;47.456;19.160;2023-05-15T07:34:17;99546.37;;;15.30;82.83
61436;BME280;47304;47.456;19.160;2023-05-15T07:36:44;99540.88;;;15.41;82.41
61436;BME280;47304;47.456;19.160;2023-05-15T07:39:11;99531.70;;;15.62;82.19
61436;BME280;47304;47.456;19.160;2023-05-15T07:41:37;99526.43;;;15.87;82.59
61436;BME280;47304;47.456;19.160;2023-05-15T07:44:04;99518.94;;;16.05;82.13
61436;BME280;47304;47.456;19.160;2023-05-15T07:46:31;99507.92;;;16.11;81.18
61436;BME280;47304;47.456;19.160;2023-05-15T07:48:58;99506.80;;;16.18;80.77
61436;BME280;47304;47.456;19.160;2023-05-15T07:51:24;99511.17;;;16.24;79.75
61436;BME280;47304;47.456;19.160;2023-05-15T07:53:51;99499.94;;;16.31;79.33
61436;BME280;47304;47.456;19.160;2023-05-15T07:56:17;99495.29;;;16.37;78.74
61436;BME280;47304;47.456;19.160;2023-05-15T07:58:44;99506.30;;;16.41;77.17
61436;BME280;47304;47.456;19.160;2023-05-15T08:01:10;99515.56;;;16.43;76.55
61436;BME280;47304;47.456;19.160;2023-05-15T08:03:38;99523.92;;;16.46;76.65
61436;BME280;47304;47.456;19.160;2023-05-15T08:06:05;99539.83;;;16.46;76.49
61436;BME280;47304;47.456;19.160;2023-05-15T08:08:31;99539.61;;;16.48;76.12
61436;BME280;47304;47.456;19.160;2023-05-15T08:10:58;99534.80;;;16.44;75.98
61436;BME280;47304;47.456;19.160;2023-05-15T08:13:24;99538.47;;;16.40;75.90
61436;BME280;47304;47.456;19.160;2023-05-15T08:15:51;99546.69;;;16.33;75.86
61436;BME280;47304;47.456;19.160;2023-05-15T08:18:17;99549.02;;;16.27;76.47
61436;BME280;47304;47.456;19.160;2023-05-15T08:20:44;99548.11;;;16.28;76.21
61436;BME280;47304;47.456;19.160;2023-05-15T08:23:10;99542.01;;;16.31;75.92
61436;BME280;47304;47.456;19.160;2023-05-15T08:25:40;99541.58;;;16.33;76.28
61436;BME280;47304;47.456;19.160;2023-05-15T08:28:06;99550.20;;;16.39;75.95
61436;BME280;47304;47.456;19.160;2023-05-15T08:30:33;99548.80;;;16.43;75.53
61436;BME280;47304;47.456;19.160;2023-05-15T08:32:59;99545.90;;;16.49;75.52
61436;BME280;47304;47.456;19.160;2023-05-15T08:35:26;99550.35;;;16.53;74.57
61436;BME280;47304;47.456;19.160;2023-05-15T08:37:53;99546.13;;;16.53;74.64
61436;BME280;47304;47.456;19.160;2023-05-15T08:40:20;99538.44;;;16.55;74.64
61436;BME280;47304;47.456;19.160;2023-05-15T08:43:09;99534.06;;;16.54;74.85
61436;BME280;47304;47.456;19.160;2023-05-15T08:45:37;99530.43;;;16.52;75.44
61436;BME280;47304;47.456;19.160;2023-05-15T08:48:09;99529.79;;;16.50;74.75
61436;BME280;47304;47.456;19.160;2023-05-15T08:50:37;99535.13;;;16.54;75.15
61436;BME280;47304;47.456;19.160;2023-05-15T08:53:04;99535.45;;;16.55;74.74
61436;BME280;47304;47.456;19.160;2023-05-15T08:55:31;99538.03;;;16.57;74.86
61436;BME280;47304;47.456;19.160;2023-05-15T08:57:58;99531.96;;;16.58;75.36
61436;BME280;47304;47.456;19.160;2023-05-15T09:00:25;99528.88;;;16.60;75.21
61436;BME280;47304;47.456;19.160;2023-05-15T09:02:52;99534.59;;;16.63;75.17
61436;BME280;47304;47.456;19.160;2023-05-15T09:05:19;99542.42;;;16.67;75.47
61436;BME280;47304;47.456;19.160;2023-05-15T09:07:48;99541.75;;;16.70;74.99
61436;BME280;47304;47.456;19.160;2023-05-15T09:10:15;99552.89;;;16.70;75.34
61436;BME280;47304;47.456;19.160;2023-05-15T09:12:43;99558.09;;;16.78;74.73
61436;BME280;47304;47.456;19.160;2023-05-15T09:15:14;99560.81;;;16.90;74.21
61436;BME280;47304;47.456;19.160;2023-05-15T09:17:41;99562.06;;;17.08;74.20
61436;BME280;47304;47.456;19.160;2023-05-15T09:20:24;99565.17;;;17.19;73.02
61436;BME280;47304;47.456;19.160;2023-05-15T09:22:51;99563.48;;;17.25;72.45
61436;BME280;47304;47.456;19.160;2023-05-15T09:25:36;99562.10;;;17.25;71.68
61436;BME280;47304;47.456;19.160;2023-05-15T09:28:05;99572.52;;;17.21;71.04
61436;BME280;47304;47.456;19.160;2023-05-15T09:30:31;99573.58;;;17.25;72.22
61436;BME280;47304;47.456;19.160;2023-05-15T09:32:59;99574.77;;;17.26;71.68
61436;BME280;47304;47.456;19.160;2023-05-15T09:35:30;99580.15;;;17.24;70.47
61436;BME280;47304;47.456;19.160;2023-05-15T09:37:58;99574.70;;;17.33;70.05
61436;BME280;47304;47.456;19.160;2023-05-15T09:40:28;99581.52;;;17.39;70.53
61436;BME280;47304;47.456;19.160;2023-05-15T09:42:55;99585.52;;;17.50;70.71
61436;BME280;47304;47.456;19.160;2023-05-15T09:45:22;99587.95;;;17.63;70.09
61436;BME280;47304;47.456;19.160;2023-05-15T09:47:49;99586.05;;;17.87;69.54
61436;BME280;47304;47.456;19.160;2023-05-15T09:50:25;99582.35;;;18.00;69.32
61436;BME280;47304;47.456;19.160;2023-05-15T09:52:58;99576.16;;;18.00;69.52
61436;BME280;47304;47.456;19.160;2023-05-15T09:55:24;99578.51;;;17.99;68.49
61436;BME280;47304;47.456;19.160;2023-05-15T10:00:30;99582.88;;;18.04;68.19
61436;BME280;47304;47.456;19.160;2023-05-15T10:03:00;99581.91;;;18.18;68.58
61436;BME280;47304;47.456;19.160;2023-05-15T10:05:27;99581.10;;;18.21;67.36
61436;BME280;47304;47.456;19.160;2023-05-15T10:08:08;99583.20;;;18.13;67.01
61436;BME280;47304;47.456;19.160;2023-05-15T10:10:35;99586.60;;;18.08;66.63
61436;BME280;47304;47.456;19.160;2023-05-15T10:13:01;99586.71;;;18.10;66.70
61436;BME280;47304;47.456;19.160;2023-05-15T10:15:28;99587.74;;;18.23;67.13
61436;BME280;47304;47.456;19.160;2023-05-15T10:17:55;99583.34;;;18.34;66.87
61436;BME280;47304;47.456;19.160;2023-05-15T10:20:23;99585.09;;;18.42;66.47
61436;BME280;47304;47.456;19.160;2023-05-15T10:22:52;99577.98;;;18.39;66.00
61436;BME280;47304;47.456;19.160;2023-05-15T10:27:57;99573.36;;;18.23;66.33
61436;BME280;47304;47.456;19.160;2023-05-15T10:30:25;99582.48;;;18.13;65.75
61436;BME280;47304;47.456;19.160;2023-05-15T10:32:52;99581.48;;;18.04;66.29
61436;BME280;47304;47.456;19.160;2023-05-15T10:35:21;99577.82;;;17.98;67.03
61436;BME280;47304;47.456;19.160;2023-05-15T10:37:48;99577.88;;;17.92;67.28
61436;BME280;47304;47.456;19.160;2023-05-15T10:40:16;99582.16;;;17.87;67.35
61436;BME280;47304;47.456;19.160;2023-05-15T10:42:44;99585.00;;;17.79;66.94
61436;BME280;47304;47.456;19.160;2023-05-15T10:45:11;99588.52;;;17.67;66.75
61436;BME280;47304;47.456;19.160;2023-05-15T10:47:40;99594.21;;;17.53;67.45
61436;BME280;47304;47.456;19.160;2023-05-15T10:50:07;99598.39;;;17.42;67.79
61436;BME280;47304;47.456;19.160;2023-05-15T10:52:35;99598.04;;;17.33;68.28
61436;BME280;47304;47.456;19.160;2023-05-15T10:55:05;99595.39;;;17.29;69.09
61436;BME280;47304;47.456;19.160;2023-05-15T10:57:32;99593.36;;;17.26;69.21
61436;BME280;47304;47.456;19.160;2023-05-15T10:59:59;99594.09;;;17.26;69.13
61436;BME280;47304;47.456;19.160;2023-05-15T11:02:27;99593.90;;;17.22;68.93
61436;BME280;47304;47.456;19.160;2023-05-15T11:05:03;99595.60;;;17.19;68.96
61436;BME280;47304;47.456;19.160;2023-05-15T11:07:29;99599.95;;;17.17;68.81
61436;BME280;47304;47.456;19.160;2023-05-15T11:09:56;99599.36;;;17.13;68.86
61436;BME280;47304;47.456;19.160;2023-05-15T11:12:23;99598.65;;;17.13;68.92
61436;BME280;47304;47.456;19.160;2023-05-15T11:17:22;99599.33;;;17.19;69.28
61436;BME280;47304;47.456;19.160;2023-05-15T11:24:59;99590.17;;;17.52;67.58
61436;BME280;47304;47.456;19.160;2023-05-15T11:27:53;99583.17;;;17.76;67.04
61436;BME280;47304;47.456;19.160;2023-05-15T11:30:21;99579.42;;;18.10;66.82
61436;BME280;47304;47.456;19.160;2023-05-15T11:35:32;99579.50;;;18.83;65.05
61436;BME280;47304;47.456;19.160;2023-05-15T11:38:00;99580.42;;;19.13;64.63
61436;BME280;47304;47.456;19.160;2023-05-15T11:40:31;99576.50;;;19.35;64.68
61436;BME280;47304;47.456;19.160;2023-05-15T11:43:06;99573.59;;;19.44;63.49
61436;BME280;47304;47.456;19.160;2023-05-15T11:45:38;99574.26;;;19.41;63.48
61436;BME280;47304;47.456;19.160;2023-05-15T11:48:06;99576.26;;;19.29;63.18
61436;BME280;47304;47.456;19.160;2023-05-15T11:50:34;99573.17;;;19.20;63.94
61436;BME280;47304;47.456;19.160;2023-05-15T11:53:02;99568.51;;;19.13;64.16
61436;BME280;47304;47.456;19.160;2023-05-15T11:55:30;99565.27;;;19.07;64.04
61436;BME280;47304;47.456;19.160;2023-05-15T11:57:58;99563.67;;;19.07;63.78
61436;BME280;47304;47.456;19.160;2023-05-15T12:00:25;99562.98;;;19.07;63.71
61436;BME280;47304;47.456;19.160;2023-05-15T12:02:52;99567.15;;;19.09;64.03
61436;BME280;47304;47.456;19.160;2023-05-15T12:05:19;99569.27;;;19.12;64.27
61436;BME280;47304;47.456;19.160;2023-05-15T12:07:46;99564.69;;;19.15;63.95
61436;BME280;47304;47.456;19.160;2023-05-15T12:10:13;99561.20;;;19.25;63.86
61436;BME280;47304;47.456;19.160;2023-05-15T12:12:41;99567.23;;;19.36;63.26
61436;BME280;47304;47.456;19.160;2023-05-15T12:15:11;99572.11;;;19.49;63.25
61436;BME280;47304;47.456;19.160;2023-05-15T12:17:39;99574.52;;;19.57;63.06
61436;BME280;47304;47.456;19.160;2023-05-15T12:20:07;99577.20;;;19.54;62.65
61436;BME280;47304;47.456;19.160;2023-05-15T12:22:35;99575.22;;;19.43;62.06
61436;BME280;47304;47.456;19.160;2023-05-15T12:25:02;99573.16;;;19.34;62.11
61436;BME280;47304;47.456;19.160;2023-05-15T12:27:29;99575.10;;;19.27;62.20
61436;BME280;47304;47.456;19.160;2023-05-15T12:29:55;99575.52;;;19.23;62.02
61436;BME280;47304;47.456;19.160;2023-05-15T12:32:22;99579.02;;;19.20;62.35
61436;BME280;47304;47.456;19.160;2023-05-15T12:34:49;99582.63;;;19.19;62.02
61436;BME280;47304;47.456;19.160;2023-05-15T12:37:18;99583.88;;;19.15;62.13
61436;BME280;47304;47.456;19.160;2023-05-15T12:40:05;99583.21;;;19.10;62.22
61436;BME280;47304;47.456;19.160;2023-05-15T12:42:37;99580.35;;;19.03;62.61
61436;BME280;47304;47.456;19.160;2023-05-15T12:45:11;99577.61;;;18.97;63.12
61436;BME280;47304;47.456;19.160;2023-05-15T12:47:38;99575.75;;;18.91;63.04
61436;BME280;47304;47.456;19.160;2023-05-15T12:50:16;99575.11;;;18.86;63.66
61436;BME280;47304;47.456;19.160;2023-05-15T12:52:54;99582.02;;;18.78;63.57
61436;BME280;47304;47.456;19.160;2023-05-15T12:55:26;99583.64;;;18.70;63.71
61436;BME280;47304;47.456;19.160;2023-05-15T12:57:55;99573.89;;;18.62;63.39
61436;BME280;47304;47.456;19.160;2023-05-15T13:00:23;99564.78;;;18.56;63.56
61436;BME280;47304;47.456;19.160;2023-05-15T13:02:54;99562.77;;;18.50;63.24
61436;BME280;47304;47.456;19.160;2023-05-15T13:05:22;99561.81;;;18.43;63.77
61436;BME280;47304;47.456;19.160;2023-05-15T13:07:49;99555.23;;;18.40;63.75
61436;BME280;47304;47.456;19.160;2023-05-15T13:10:15;99549.05;;;18.36;63.21
61436;BME280;47304;47.456;19.160;2023-05-15T13:12:44;99549.63;;;18.34;63.66
61436;BME280;47304;47.456;19.160;2023-05-15T13:15:38;99557.98;;;18.34;63.74